createdAt,value
2023-02-08T00:00:42.663Z,10.88
2023-02-08T00:03:09.241Z,10.30
2023-02-08T00:05:35.819Z,10.15
2023-02-08T00:08:02.258Z,11.60
2023-02-08T00:10:28.745Z,9.52
2023-02-08T00:12:55.405Z,10.68
2023-02-08T00:15:22.168Z,10.88
2023-02-08T00:17:48.639Z,11.00
2023-02-08T00:20:15.452Z,10.23
2023-02-08T00:22:41.939Z,10.82
2023-02-08T00:25:08.956Z,9.20
2023-02-08T00:27:35.950Z,10.02
2023-02-08T00:30:02.440Z,9.13
2023-02-08T00:32:28.902Z,10.07
2023-02-08T00:34:55.308Z,9.20
2023-02-08T00:37:21.829Z,10.15
2023-02-08T00:39:48.283Z,9.48
2023-02-08T00:42:14.693Z,9.60
2023-02-08T00:44:41.160Z,10.67
2023-02-08T00:47:07.595Z,9.82
2023-02-08T00:49:34.035Z,9.70
2023-02-08T00:52:00.530Z,10.20
2023-02-08T00:54:27.169Z,9.57
2023-02-08T00:56:53.629Z,8.53
2023-02-08T00:59:20.116Z,8.77
2023-02-08T01:01:46.570Z,8.63
2023-02-08T01:04:12.981Z,9.55
2023-02-08T01:06:39.373Z,8.90
2023-02-08T01:09:05.832Z,10.63
2023-02-08T01:11:32.283Z,9.85
2023-02-08T01:13:59.357Z,9.75
2023-02-08T01:16:28.760Z,8.50
2023-02-08T01:18:56.933Z,10.32
2023-02-08T01:21:26.140Z,9.00
2023-02-08T01:23:53.248Z,8.82
2023-02-08T01:26:21.380Z,9.43
2023-02-08T01:28:48.934Z,10.25
2023-02-08T01:31:19.620Z,8.55
2023-02-08T01:33:46.186Z,10.63
2023-02-08T01:36:12.808Z,8.95
2023-02-08T01:38:39.733Z,9.23
2023-02-08T01:41:08.691Z,8.88
2023-02-08T01:44:01.038Z,8.40
2023-02-08T01:46:28.148Z,10.03
2023-02-08T01:48:59.395Z,8.73
2023-02-08T01:51:29.984Z,7.85
2023-02-08T01:53:57.767Z,9.75
2023-02-08T01:56:33.225Z,9.25
2023-02-08T01:59:03.061Z,8.83
2023-02-08T02:01:31.556Z,8.95
2023-02-08T02:04:02.051Z,8.75
2023-02-08T02:06:33.944Z,8.60
2023-02-08T02:09:23.723Z,8.60
2023-02-08T02:11:53.208Z,9.27
2023-02-08T02:14:20.092Z,9.73
2023-02-08T02:16:46.744Z,9.68
2023-02-08T02:19:44.096Z,8.70
2023-02-08T02:22:31.791Z,8.70
2023-02-08T02:25:16.375Z,8.50
2023-02-08T02:27:57.904Z,8.40
2023-02-08T02:30:58.249Z,7.90
2023-02-08T02:33:27.724Z,9.02
2023-02-08T02:36:01.491Z,7.97
2023-02-08T02:38:41.747Z,8.93
2023-02-08T02:41:57.862Z,8.05
2023-02-08T02:44:42.019Z,7.97
2023-02-08T02:47:32.165Z,7.68
2023-02-08T02:50:18.688Z,8.70
2023-02-08T02:52:52.032Z,7.47
2023-02-08T02:55:23.773Z,10.02
2023-02-08T02:57:53.391Z,9.55
2023-02-08T03:00:25.392Z,7.70
2023-02-08T03:02:52.576Z,8.10
2023-02-08T03:05:19.322Z,8.37
2023-02-08T03:08:12.383Z,8.57
2023-02-08T03:11:11.102Z,8.60
2023-02-08T03:13:43.624Z,7.80
2023-02-08T03:16:15.923Z,8.98
2023-02-08T03:19:07.209Z,7.00
2023-02-08T03:21:39.624Z,9.48
2023-02-08T03:24:20.163Z,8.30
2023-02-08T03:27:09.244Z,7.88
2023-02-08T03:29:59.810Z,8.05
2023-02-08T03:32:38.385Z,8.43
2023-02-08T03:35:47.355Z,8.10
2023-02-08T03:38:21.076Z,7.72
2023-02-08T03:40:51.605Z,8.60
2023-02-08T03:43:23.322Z,9.15
2023-02-08T03:45:55.484Z,8.37
2023-02-08T03:48:25.020Z,6.85
2023-02-08T03:50:55.610Z,8.68
2023-02-08T03:53:24.819Z,8.50
2023-02-08T03:55:58.551Z,8.27
2023-02-08T03:58:34.503Z,7.63
2023-02-08T04:01:08.985Z,7.95
2023-02-08T04:03:36.595Z,7.95
2023-02-08T04:06:03.167Z,7.70
2023-02-08T04:08:29.592Z,7.75
2023-02-08T04:10:56.048Z,6.93
2023-02-08T04:13:22.491Z,7.60
2023-02-08T04:15:49.035Z,9.20
2023-02-08T04:18:15.877Z,8.30
2023-02-08T04:20:42.499Z,6.32
2023-02-08T04:23:09.004Z,8.53
2023-02-08T04:25:35.424Z,8.48
2023-02-08T04:28:01.851Z,7.85
2023-02-08T04:30:28.506Z,8.52
2023-02-08T04:32:55.017Z,7.53
2023-02-08T04:35:21.475Z,8.80
2023-02-08T04:37:47.936Z,7.45
2023-02-08T04:40:14.397Z,7.68
2023-02-08T04:42:40.819Z,7.47
2023-02-08T04:45:07.670Z,7.15
2023-02-08T04:47:34.118Z,8.10
2023-02-08T04:50:00.555Z,7.80
2023-02-08T04:52:27.006Z,7.35
2023-02-08T04:54:53.446Z,8.13
2023-02-08T04:57:19.908Z,7.55
2023-02-08T04:59:46.344Z,6.77
2023-02-08T05:02:12.860Z,7.55
2023-02-08T05:04:39.295Z,8.77
2023-02-08T05:07:05.753Z,7.72
2023-02-08T05:09:32.307Z,6.97
2023-02-08T05:11:58.748Z,7.73
2023-02-08T05:14:25.203Z,7.55
2023-02-08T05:16:51.656Z,7.07
2023-02-08T05:19:18.176Z,6.85
2023-02-08T05:21:44.633Z,7.25
2023-02-08T05:24:12.440Z,8.07
2023-02-08T05:26:40.066Z,7.22
2023-02-08T05:29:06.635Z,7.03
2023-02-08T05:31:33.222Z,8.10
2023-02-08T05:33:59.711Z,8.52
2023-02-08T05:36:27.025Z,7.27
2023-02-08T05:38:53.590Z,7.25
2023-02-08T05:41:20.201Z,7.57
2023-02-08T05:43:46.739Z,7.38
2023-02-08T05:46:13.480Z,7.13
2023-02-08T05:48:40.267Z,8.00
2023-02-08T05:51:07.408Z,7.13
2023-02-08T05:53:34.110Z,8.68
2023-02-08T05:56:00.736Z,6.93
2023-02-08T05:58:28.270Z,6.95
2023-02-08T06:00:54.992Z,7.27
2023-02-08T06:03:21.801Z,6.63
2023-02-08T06:05:48.592Z,7.88
2023-02-08T06:08:15.570Z,7.05
2023-02-08T06:10:42.434Z,8.65
2023-02-08T06:13:09.043Z,7.83
2023-02-08T06:15:35.669Z,7.22
2023-02-08T06:18:02.198Z,7.20
2023-02-08T06:20:28.649Z,7.35
2023-02-08T06:22:55.347Z,7.50
2023-02-08T06:25:21.784Z,7.70
2023-02-08T06:27:48.287Z,7.78
2023-02-08T06:30:14.766Z,7.72
2023-02-08T06:32:41.239Z,8.30
2023-02-08T06:35:08.074Z,6.82
2023-02-08T06:37:34.511Z,7.87
2023-02-08T06:40:02.042Z,6.65
2023-02-08T06:42:28.814Z,7.57
2023-02-08T06:44:56.001Z,6.78
2023-02-08T06:47:23.218Z,6.43
2023-02-08T06:49:49.720Z,7.13
2023-02-08T06:52:16.322Z,7.53
2023-02-08T06:54:43.186Z,7.22
2023-02-08T06:57:12.714Z,7.65
2023-02-08T06:59:39.871Z,7.65
2023-02-08T07:02:11.635Z,8.40
2023-02-08T07:04:38.278Z,7.18
2023-02-08T07:07:04.746Z,8.30
2023-02-08T07:09:33.408Z,6.60
2023-02-08T07:12:02.365Z,7.15
2023-02-08T07:14:28.914Z,8.40
2023-02-08T07:16:56.303Z,7.97
2023-02-08T07:19:23.021Z,7.78
2023-02-08T07:21:49.566Z,7.95
2023-02-08T07:24:17.930Z,8.23
2023-02-08T07:26:44.906Z,8.07
2023-02-08T07:29:11.396Z,8.88
2023-02-08T07:31:37.900Z,7.47
2023-02-08T07:34:04.420Z,6.85
2023-02-08T07:36:31.441Z,7.07
2023-02-08T07:38:58.100Z,7.40
2023-02-08T07:41:24.793Z,7.10
2023-02-08T07:43:51.241Z,9.10
2023-02-08T07:46:20.729Z,8.32
2023-02-08T07:48:49.259Z,7.82
2023-02-08T07:51:16.109Z,8.90
2023-02-08T07:53:42.548Z,8.30
2023-02-08T07:56:10.445Z,7.63
2023-02-08T07:58:37.649Z,7.75
2023-02-08T08:01:19.704Z,7.35
2023-02-08T08:03:47.831Z,7.13
2023-02-08T08:06:14.364Z,8.25
2023-02-08T08:08:40.871Z,7.93
2023-02-08T08:11:07.374Z,8.50
2023-02-08T08:13:33.827Z,7.97
2023-02-08T08:16:00.318Z,10.10
2023-02-08T08:18:26.836Z,10.27
2023-02-08T08:20:53.317Z,9.93
2023-02-08T08:23:19.918Z,8.95
2023-02-08T08:25:46.603Z,8.57
2023-02-08T08:28:13.243Z,8.70
2023-02-08T08:30:43.782Z,10.00
2023-02-08T08:33:10.958Z,9.15
2023-02-08T08:35:37.838Z,7.45
2023-02-08T08:38:04.514Z,8.73
2023-02-08T08:40:31.166Z,7.23
2023-02-08T08:42:57.621Z,9.00
2023-02-08T08:45:24.138Z,8.18
2023-02-08T08:47:50.672Z,10.13
2023-02-08T08:50:17.231Z,9.13
2023-02-08T08:52:43.844Z,10.43
2023-02-08T08:55:10.422Z,8.48
2023-02-08T08:57:37.110Z,8.60
2023-02-08T09:00:05.030Z,8.70
2023-02-08T09:02:31.550Z,8.65
2023-02-08T09:05:00.276Z,8.40
2023-02-08T09:07:26.815Z,9.40
2023-02-08T09:09:53.291Z,8.32
2023-02-08T09:12:19.767Z,8.70
2023-02-08T09:14:46.220Z,8.10
2023-02-08T09:17:12.677Z,7.00
2023-02-08T09:19:39.370Z,8.77
2023-02-08T09:22:06.932Z,8.55
2023-02-08T09:24:34.299Z,8.75
2023-02-08T09:27:01.331Z,8.75
2023-02-08T09:29:32.790Z,7.77
2023-02-08T09:31:59.691Z,7.85
2023-02-08T09:34:26.170Z,7.43
2023-02-08T09:36:52.633Z,8.90
2023-02-08T09:39:24.149Z,8.68
2023-02-08T09:42:05.906Z,8.23
2023-02-08T09:44:45.191Z,9.65
2023-02-08T09:47:18.520Z,7.72
2023-02-08T09:49:57.557Z,7.10
2023-02-08T09:52:37.077Z,7.53
2023-02-08T09:55:28.979Z,7.83
2023-02-08T09:57:58.431Z,8.07
2023-02-08T10:00:42.036Z,7.65
2023-02-08T10:03:37.777Z,7.55
2023-02-08T10:06:06.864Z,9.40
2023-02-08T10:08:35.833Z,9.70
2023-02-08T10:11:36.739Z,8.48
2023-02-08T10:14:22.600Z,7.93
2023-02-08T10:16:58.317Z,8.82
2023-02-08T10:19:30.945Z,8.68
2023-02-08T10:22:20.011Z,8.37
2023-02-08T10:25:06.290Z,7.63
2023-02-08T10:27:54.338Z,8.30
2023-02-08T10:30:25.631Z,9.05
2023-02-08T10:33:07.076Z,7.25
2023-02-08T10:35:38.349Z,7.93
2023-02-08T10:38:45.914Z,8.15
2023-02-08T10:41:20.617Z,10.77
2023-02-08T10:44:29.101Z,9.82
2023-02-08T10:47:13.399Z,14.18
2023-02-08T10:49:53.533Z,7.13
2023-02-08T10:52:20.116Z,11.50
2023-02-08T10:54:46.568Z,17.08
2023-02-08T10:57:22.105Z,20.88
2023-02-08T10:59:55.174Z,9.00
2023-02-08T11:02:34.469Z,6.60
2023-02-08T11:05:27.284Z,7.13
2023-02-08T11:08:11.525Z,10.35
2023-02-08T11:10:39.576Z,6.97
2023-02-08T11:13:17.113Z,7.30
2023-02-08T11:15:53.794Z,6.50
2023-02-08T11:18:25.112Z,6.35
2023-02-08T11:20:55.785Z,6.35
2023-02-08T11:23:42.938Z,6.60
2023-02-08T11:26:23.936Z,6.30
2023-02-08T11:29:15.160Z,6.20
2023-02-08T11:31:56.669Z,5.95
2023-02-08T11:34:32.833Z,5.82
2023-02-08T11:37:03.567Z,5.30
2023-02-08T11:39:42.868Z,7.40
2023-02-08T11:42:20.899Z,6.33
2023-02-08T11:44:48.840Z,5.50
2023-02-08T11:47:18.613Z,5.93
2023-02-08T11:49:53.653Z,4.97
2023-02-08T11:52:32.224Z,5.60
2023-02-08T11:55:33.730Z,5.17
2023-02-08T11:58:01.428Z,4.93
2023-02-08T12:00:36.797Z,6.03
2023-02-08T12:03:23.690Z,5.78
2023-02-08T12:06:25.227Z,4.75
2023-02-08T12:09:14.675Z,5.57
2023-02-08T12:11:42.874Z,5.88
2023-02-08T12:14:21.186Z,5.00
2023-02-08T12:17:12.547Z,5.70
2023-02-08T12:20:00.861Z,5.35
2023-02-08T12:22:29.372Z,6.10
2023-02-08T12:25:17.737Z,7.47
2023-02-08T12:28:07.606Z,5.32
2023-02-08T12:30:39.463Z,5.93
2023-02-08T12:33:17.428Z,4.20
2023-02-08T12:36:05.091Z,4.73
2023-02-08T12:39:20.834Z,4.53
2023-02-08T12:42:18.258Z,3.85
2023-02-08T12:44:59.945Z,5.45
2023-02-08T12:47:38.460Z,5.60
2023-02-08T12:50:05.130Z,4.10
2023-02-08T12:52:48.803Z,4.35
2023-02-08T12:55:22.383Z,5.00
2023-02-08T12:58:19.137Z,4.28
2023-02-08T13:00:48.108Z,4.28
2023-02-08T13:03:39.964Z,5.07
2023-02-08T13:06:13.669Z,4.97
2023-02-08T13:08:47.798Z,5.30
2023-02-08T13:11:20.224Z,5.03
2023-02-08T13:13:55.577Z,4.97
2023-02-08T13:16:26.268Z,5.63
2023-02-08T13:19:01.803Z,5.25
2023-02-08T13:21:40.983Z,14.88
2023-02-08T13:24:22.940Z,12.55
2023-02-08T13:26:49.468Z,5.30
2023-02-08T13:29:19.500Z,6.00
2023-02-08T13:31:56.933Z,10.32
2023-02-08T13:34:51.102Z,23.40
2023-02-08T13:37:33.104Z,6.28
2023-02-08T13:40:04.453Z,6.22
2023-02-08T13:42:39.700Z,9.03
2023-02-08T13:45:08.959Z,8.57
2023-02-08T13:47:46.243Z,10.60
2023-02-08T13:50:38.852Z,14.38
2023-02-08T13:53:06.504Z,18.80
2023-02-08T13:55:36.166Z,11.77
2023-02-08T13:58:16.107Z,9.23
2023-02-08T14:00:55.015Z,6.55
2023-02-08T14:03:24.639Z,6.82
2023-02-08T14:05:59.910Z,5.28
2023-02-08T14:08:52.129Z,5.03
2023-02-08T14:11:25.441Z,4.68
2023-02-08T14:14:19.813Z,4.68
2023-02-08T14:17:07.130Z,4.07
2023-02-08T14:19:36.624Z,4.65
2023-02-08T14:22:06.230Z,5.20
2023-02-08T14:24:37.185Z,5.15
2023-02-08T14:27:09.849Z,5.10
2023-02-08T14:29:37.312Z,4.45
2023-02-08T14:32:05.122Z,4.28
2023-02-08T14:34:35.397Z,4.00
2023-02-08T14:37:25.058Z,4.28
2023-02-08T14:40:16.972Z,4.65
2023-02-08T14:43:03.622Z,4.10
2023-02-08T14:45:39.446Z,3.55
2023-02-08T14:48:08.050Z,3.37
2023-02-08T14:50:39.583Z,2.97
2023-02-08T14:53:19.458Z,3.40
2023-02-08T14:55:52.013Z,3.25
2023-02-08T14:58:34.823Z,2.75
2023-02-08T15:01:07.430Z,2.50
2023-02-08T15:03:35.281Z,3.20
2023-02-08T15:06:28.096Z,2.55
2023-02-08T15:08:55.615Z,3.05
2023-02-08T15:11:31.308Z,2.58
2023-02-08T15:14:01.284Z,2.37
2023-02-08T15:16:40.000Z,2.42
2023-02-08T15:19:09.091Z,2.17
2023-02-08T15:21:38.865Z,2.35
2023-02-08T15:24:23.015Z,2.40
2023-02-08T15:26:54.935Z,2.80
2023-02-08T15:29:42.801Z,3.10
2023-02-08T15:32:16.390Z,2.75
2023-02-08T15:34:45.245Z,2.75
2023-02-08T15:37:38.072Z,2.80
2023-02-08T15:40:05.206Z,2.87
2023-02-08T15:42:33.758Z,3.10
2023-02-08T15:45:05.420Z,3.70
2023-02-08T15:47:37.918Z,3.05
2023-02-08T15:50:17.847Z,2.65
2023-02-08T15:52:44.626Z,2.77
2023-02-08T15:55:18.297Z,2.70
2023-02-08T15:57:48.238Z,3.08
2023-02-08T16:00:33.106Z,3.28
2023-02-08T16:03:19.555Z,2.85
2023-02-08T16:05:51.464Z,3.10
2023-02-08T16:08:34.259Z,3.55
2023-02-08T16:11:03.524Z,3.47
2023-02-08T16:13:33.542Z,2.92
2023-02-08T16:16:15.223Z,3.00
2023-02-08T16:18:46.207Z,3.00
2023-02-08T16:21:24.858Z,3.33
2023-02-08T16:23:56.465Z,3.40
2023-02-08T16:26:30.036Z,3.10
2023-02-08T16:28:59.983Z,3.65
2023-02-08T16:31:30.986Z,3.50
2023-02-08T16:34:14.128Z,3.10
2023-02-08T16:36:42.844Z,3.28
2023-02-08T16:39:21.652Z,3.63
2023-02-08T16:42:09.684Z,5.03
2023-02-08T16:44:58.876Z,7.80
2023-02-08T16:47:28.398Z,5.75
2023-02-08T16:49:54.938Z,6.30
2023-02-08T16:52:21.592Z,6.82
2023-02-08T16:54:48.262Z,6.35
2023-02-08T16:57:14.687Z,5.60
2023-02-08T16:59:41.290Z,5.30
2023-02-08T17:02:12.380Z,5.28
2023-02-08T17:04:39.429Z,4.30
2023-02-08T17:07:06.126Z,5.05
2023-02-08T17:09:32.660Z,3.93
2023-02-08T17:11:59.084Z,4.65
2023-02-08T17:14:25.490Z,5.18
2023-02-08T17:16:52.022Z,5.28
2023-02-08T17:19:18.588Z,5.32
2023-02-08T17:21:45.075Z,5.43
2023-02-08T17:24:12.011Z,6.75
2023-02-08T17:26:43.794Z,6.72
2023-02-08T17:29:12.445Z,6.93
2023-02-08T17:31:41.769Z,6.65
2023-02-08T17:34:08.425Z,7.33
2023-02-08T17:36:36.811Z,8.70
2023-02-08T17:39:05.436Z,20.90
2023-02-08T17:41:31.855Z,19.92
2023-02-08T17:43:58.570Z,12.35
2023-02-08T17:46:30.625Z,13.30
2023-02-08T17:49:01.753Z,12.70
2023-02-08T17:51:28.522Z,10.75
2023-02-08T17:53:55.006Z,10.55
2023-02-08T17:56:24.366Z,12.18
2023-02-08T17:58:53.766Z,10.73
2023-02-08T18:01:24.570Z,9.25
2023-02-08T18:03:52.209Z,8.65
2023-02-08T18:06:19.212Z,9.27
2023-02-08T18:08:46.487Z,8.98
2023-02-08T18:11:17.969Z,9.03
2023-02-08T18:13:45.316Z,8.35
2023-02-08T18:16:15.151Z,7.88
2023-02-08T18:18:42.095Z,11.02
2023-02-08T18:21:13.937Z,10.15
2023-02-08T18:23:41.406Z,7.73
2023-02-08T18:26:13.889Z,9.40
2023-02-08T18:28:40.516Z,10.55
2023-02-08T18:31:09.947Z,11.48
2023-02-08T18:33:37.815Z,9.98
2023-02-08T18:36:06.334Z,9.20
2023-02-08T18:38:33.664Z,10.57
2023-02-08T18:41:00.128Z,9.45
2023-02-08T18:43:30.402Z,7.47
2023-02-08T18:46:01.615Z,7.75
2023-02-08T18:48:28.329Z,7.40
2023-02-08T18:50:56.646Z,8.70
2023-02-08T18:53:23.830Z,8.95
2023-02-08T18:55:55.347Z,7.95
2023-02-08T18:58:22.842Z,6.47
2023-02-08T19:00:50.760Z,4.57
2023-02-08T19:03:18.228Z,4.93
2023-02-08T19:05:45.366Z,5.40
2023-02-08T19:08:12.945Z,5.10
2023-02-08T19:10:41.219Z,31.02
2023-02-08T19:13:07.952Z,19.57
2023-02-08T19:15:41.357Z,12.98
2023-02-08T19:18:08.270Z,5.25
2023-02-08T19:20:36.788Z,8.45
2023-02-08T19:23:05.139Z,11.27
2023-02-08T19:25:35.593Z,8.30
2023-02-08T19:28:02.135Z,8.60
2023-02-08T19:30:28.739Z,6.68
2023-02-08T19:32:55.485Z,7.65
2023-02-08T19:35:22.249Z,7.50
2023-02-08T19:37:51.280Z,6.90
2023-02-08T19:40:19.233Z,6.10
2023-02-08T19:42:45.815Z,5.93
2023-02-08T19:45:13.653Z,5.82
2023-02-08T19:47:51.147Z,6.20
2023-02-08T19:50:18.340Z,5.57
2023-02-08T19:52:44.824Z,5.00
2023-02-08T19:55:11.339Z,5.40
2023-02-08T19:57:40.007Z,5.00
2023-02-08T20:00:17.458Z,7.03
2023-02-08T20:02:48.018Z,6.80
2023-02-08T20:05:14.458Z,8.18
2023-02-08T20:07:40.951Z,8.63
2023-02-08T20:10:07.769Z,9.93
2023-02-08T20:12:34.158Z,9.32
2023-02-08T20:15:00.552Z,10.00
2023-02-08T20:17:27.036Z,10.95
2023-02-08T20:19:53.489Z,20.55
2023-02-08T20:22:19.943Z,18.77
2023-02-08T20:24:46.469Z,13.55
2023-02-08T20:27:13.039Z,12.60
2023-02-08T20:29:39.489Z,14.85
2023-02-08T20:32:06.085Z,15.48
2023-02-08T20:34:32.559Z,13.30
2023-02-08T20:37:08.273Z,13.82
2023-02-08T20:39:36.711Z,11.63
2023-02-08T20:42:04.289Z,9.93
2023-02-08T20:44:31.857Z,8.73
2023-02-08T20:46:58.535Z,11.73
2023-02-08T20:49:26.792Z,10.90
2023-02-08T20:51:54.407Z,9.57
2023-02-08T20:54:23.925Z,8.98
2023-02-08T20:56:51.572Z,7.43
2023-02-08T20:59:18.030Z,8.15
2023-02-08T21:01:46.476Z,7.97
2023-02-08T21:04:13.716Z,6.93
2023-02-08T21:06:44.262Z,6.60
2023-02-08T21:09:15.611Z,7.10
2023-02-08T21:11:43.389Z,8.95
2023-02-08T21:14:15.365Z,7.80
2023-02-08T21:16:42.005Z,7.77
2023-02-08T21:19:10.753Z,10.10
2023-02-08T21:21:37.387Z,8.73
2023-02-08T21:24:04.328Z,8.70
2023-02-08T21:26:30.889Z,8.43
2023-02-08T21:28:58.715Z,7.73
2023-02-08T21:31:26.439Z,8.73
2023-02-08T21:33:53.680Z,7.22
2023-02-08T21:36:23.455Z,7.03
2023-02-08T21:38:50.376Z,8.45
2023-02-08T21:41:23.335Z,8.07
2023-02-08T21:43:52.786Z,7.32
2023-02-08T21:46:19.270Z,7.53
2023-02-08T21:49:04.713Z,8.20
2023-02-08T21:51:50.461Z,8.98
2023-02-08T21:54:38.474Z,8.23
2023-02-08T21:57:07.416Z,7.45
2023-02-08T21:59:37.658Z,8.82
2023-02-08T22:02:05.946Z,7.88
2023-02-08T22:04:55.499Z,9.48
2023-02-08T22:07:23.237Z,9.77
2023-02-08T22:09:49.948Z,11.27
2023-02-08T22:12:18.396Z,10.52
2023-02-08T22:14:44.874Z,9.80
2023-02-08T22:17:11.358Z,11.60
2023-02-08T22:19:41.707Z,10.37
2023-02-08T22:22:09.338Z,10.65
2023-02-08T22:24:36.896Z,11.07
2023-02-08T22:27:03.561Z,11.40
2023-02-08T22:29:29.983Z,11.75
2023-02-08T22:31:56.558Z,9.20
2023-02-08T22:34:23.157Z,10.20
2023-02-08T22:36:49.684Z,9.77
2023-02-08T22:39:16.117Z,9.07
2023-02-08T22:41:42.575Z,10.23
2023-02-08T22:44:08.976Z,9.03
2023-02-08T22:46:35.478Z,8.35
2023-02-08T22:49:02.067Z,8.95
2023-02-08T22:51:28.481Z,7.72
2023-02-08T22:53:55.987Z,7.78
2023-02-08T22:56:22.547Z,7.17
2023-02-08T22:58:49.001Z,7.35
2023-02-08T23:01:17.199Z,7.28
2023-02-08T23:03:43.797Z,6.88
2023-02-08T23:06:14.265Z,6.90
2023-02-08T23:08:40.860Z,7.07
2023-02-08T23:11:07.357Z,6.45
2023-02-08T23:13:34.715Z,6.00
2023-02-08T23:16:01.338Z,5.30
2023-02-08T23:18:27.900Z,6.43
2023-02-08T23:20:54.751Z,5.97
2023-02-08T23:23:21.390Z,6.00
2023-02-08T23:25:47.972Z,5.93
2023-02-08T23:28:14.569Z,6.55
2023-02-08T23:30:42.650Z,5.90
2023-02-08T23:33:09.275Z,6.00
2023-02-08T23:35:38.751Z,6.03
2023-02-08T23:38:05.185Z,6.25
2023-02-08T23:40:31.613Z,6.53
2023-02-08T23:42:58.092Z,6.43
2023-02-08T23:45:24.634Z,6.33
2023-02-08T23:47:51.143Z,10.15
2023-02-08T23:50:17.663Z,9.50
2023-02-08T23:52:44.097Z,9.02
2023-02-08T23:55:10.629Z,7.60
2023-02-08T23:57:37.598Z,6.03
